Time;durP1;ratioP1;P1;durP2;ratioP2;P2;SDS_P1;SDS_P2;PMS_P1;PMS_P2;Temp;Humidity;BMP_temperature;BMP_pressure;BME280_temperature;BME280_humidity;BME280_pressure;Samples;Min_cycle;Max_cycle;Signal;HPM_P1;HPM_P2
2024/03/22 00:02:56;;;;;;;96.90;40.00;;;;;;;9.54;99.98;100552.79;672032;1263;140574;-79
2024/03/22 00:17:59;;;;;;;99.20;39.00;;;;;;;9.49;99.91;100540.52;672528;1262;137679;-79
2024/03/22 00:33:02;;;;;;;88.70;37.70;;;;;;;9.43;99.53;100539.43;670407;1262;140140;-79
2024/03/22 00:48:05;;;;;;;102.50;39.60;;;;;;;9.33;99.66;100546.54;669905;1264;140437;-78
2024/03/22 01:03:09;;;;;;;97.90;39.80;;;;;;;9.10;99.87;100539.57;669482;1260;139340;-79
2024/03/22 01:18:12;;;;;;;95.00;35.90;;;;;;;8.92;99.55;100538.83;672988;1276;138712;-79
2024/03/22 01:33:15;;;;;;;104.10;36.30;;;;;;;8.73;99.85;100544.65;670623;1267;139691;-79
2024/03/22 01:48:19;;;;;;;102.40;37.30;;;;;;;8.54;100.00;100534.04;677502;1262;142776;-79
2024/03/22 02:03:22;;;;;;;105.00;40.70;;;;;;;8.61;99.82;100526.05;670910;1262;139849;-78
2024/03/22 02:18:25;;;;;;;112.80;41.80;;;;;;;8.59;99.72;100529.30;670631;1262;139461;-78
2024/03/22 02:33:28;;;;;;;113.10;40.30;;;;;;;8.48;99.91;100533.61;669482;1264;140261;-78
2024/03/22 02:48:31;;;;;;;115.00;38.80;;;;;;;8.08;100.00;100534.48;669640;1262;139605;-78
2024/03/22 03:03:35;;;;;;;84.90;33.30;;;;;;;7.99;100.00;100512.98;677043;1264;139975;-78
2024/03/22 03:18:38;;;;;;;90.90;33.10;;;;;;;8.02;100.00;100508.96;670281;1267;139763;-78
2024/03/22 03:33:41;;;;;;;88.50;32.10;;;;;;;8.14;100.00;100502.64;673484;1273;138867;-78
2024/03/22 03:48:44;;;;;;;78.60;32.10;;;;;;;8.16;100.00;100501.98;667397;1263;139166;-79
2024/03/22 04:03:49;;;;;;;89.40;31.20;;;;;;;8.13;100.00;100518.25;668883;1265;140566;-78
2024/03/22 04:18:53;;;;;;;97.40;31.40;;;;;;;8.14;100.00;100507.02;668661;1262;140100;-78
2024/03/22 04:33:56;;;;;;;75.70;28.50;;;;;;;8.15;99.97;100506.91;673044;1262;139555;-79
2024/03/22 04:48:59;;;;;;;79.60;28.70;;;;;;;8.07;99.95;100499.02;670508;1263;139150;-79
2024/03/22 05:04:02;;;;;;;85.80;27.70;;;;;;;8.05;100.00;100501.91;672302;1264;139034;-79
2024/03/22 05:19:06;;;;;;;87.60;29.60;;;;;;;8.08;99.87;100503.76;670779;1269;139737;-78
2024/03/22 05:34:09;;;;;;;69.60;24.70;;;;;;;8.15;99.97;100497.40;676800;1264;138886;-79
2024/03/22 05:49:12;;;;;;;70.60;25.10;;;;;;;8.24;99.86;100504.70;678293;1262;139660;-77
2024/03/22 06:04:15;;;;;;;118.30;45.10;;;;;;;8.39;99.95;100498.02;679409;1265;139553;-79
2024/03/22 06:19:19;;;;;;;67.00;24.20;;;;;;;8.45;99.71;100496.20;678081;1264;141512;-79
2024/03/22 06:34:22;;;;;;;54.00;20.20;;;;;;;8.44;99.82;100481.08;673271;1276;139819;-79
2024/03/22 06:49:25;;;;;;;71.50;24.80;;;;;;;8.44;99.83;100480.23;668423;1278;139259;-79
2024/03/22 07:04:28;;;;;;;63.50;24.00;;;;;;;8.58;99.98;100477.29;668179;1263;139044;-79
2024/03/22 07:19:32;;;;;;;69.50;26.20;;;;;;;8.61;99.82;100462.40;667807;1275;140002;-79
2024/03/22 07:34:36;;;;;;;82.70;29.10;;;;;;;8.71;100.00;100446.11;666441;1262;139710;-79
2024/03/22 07:49:39;;;;;;;69.30;23.80;;;;;;;8.83;100.00;100431.91;668529;1263;139508;-79
2024/03/22 08:04:43;;;;;;;70.60;26.00;;;;;;;8.81;100.00;100418.36;670164;1264;139414;-79
2024/03/22 08:19:47;;;;;;;81.30;32.80;;;;;;;8.80;100.00;100414.03;669908;1262;140164;-79
2024/03/22 08:34:50;;;;;;;80.90;28.50;;;;;;;8.96;100.00;100398.46;670216;1262;140077;-79
2024/03/22 08:49:53;;;;;;;100.70;39.30;;;;;;;8.97;100.00;100384.23;669547;1264;139233;-78
2024/03/22 09:04:58;;;;;;;111.10;37.30;;;;;;;9.13;100.00;100387.55;674752;1263;139350;-78
2024/03/22 09:20:03;;;;;;;84.40;31.30;;;;;;;9.01;100.00;100365.81;672078;1264;139879;-79
2024/03/22 09:35:07;;;;;;;83.00;30.10;;;;;;;9.08;100.00;100345.48;673406;1263;139110;-78
2024/03/22 09:50:12;;;;;;;79.00;31.30;;;;;;;9.14;100.00;100340.16;667273;1263;139029;-77
2024/03/22 10:05:19;;;;;;;92.80;32.40;;;;;;;9.24;100.00;100334.48;668166;1262;139697;-77
2024/03/22 10:20:23;;;;;;;87.60;31.60;;;;;;;9.91;100.00;100281.39;666534;1264;200769;-77
2024/03/22 10:35:26;;;;;;;52.60;24.20;;;;;;;10.48;100.00;100272.02;667147;1262;140012;-77
2024/03/22 10:50:33;;;;;;;60.40;26.40;;;;;;;10.91;99.68;100268.59;671340;1262;141517;-78
2024/03/22 11:05:47;;;;;;;46.90;21.10;;;;;;;11.20;97.20;100247.11;674902;1259;139208;-75
2024/03/22 11:20:51;;;;;;;40.00;20.30;;;;;;;11.34;96.54;100199.23;673980;1264;139846;-76
2024/03/22 11:35:54;;;;;;;30.50;15.30;;;;;;;11.57;93.16;100174.86;667812;1263;139520;-78
2024/03/22 11:51:00;;;;;;;26.10;14.70;;;;;;;11.78;88.51;100144.02;676491;1263;140882;-78
2024/03/22 12:06:05;;;;;;;33.80;15.20;;;;;;;11.22;89.57;100120.16;671688;1260;139196;-79
2024/03/22 12:21:08;;;;;;;30.30;16.10;;;;;;;11.04;92.13;100108.16;678950;1264;139588;-78
2024/03/22 12:36:20;;;;;;;36.70;18.10;;;;;;;11.07;94.66;100092.83;673072;1264;139294;-78
2024/03/22 12:51:24;;;;;;;43.70;19.60;;;;;;;11.06;96.10;100091.55;671328;1262;139595;-80
2024/03/22 13:06:27;;;;;;;51.50;22.60;;;;;;;10.97;98.61;100066.13;674643;1263;139468;-79
2024/03/22 13:21:31;;;;;;;44.00;20.20;;;;;;;10.86;99.97;100036.66;677797;1262;139508;-78
2024/03/22 13:57:01;;;;;;;51.30;26.30;;;;;;;10.84;100.00;99979.30;656746;1298;544987;-78
2024/03/22 14:21:02;;;;;;;44.60;22.10;;;;;;;10.94;100.00;99930.73;659899;1295;545173;-78
2024/03/22 14:36:08;;;;;;;40.00;19.80;;;;;;;11.18;100.00;99899.50;671286;1269;138757;-79
2024/03/22 14:51:26;;;;;;;46.60;21.90;;;;;;;11.35;100.00;99879.59;672372;1270;142699;-78
2024/03/22 15:06:47;;;;;;;45.80;22.00;;;;;;;11.46;99.92;99856.36;672566;1271;138810;-78
2024/03/22 15:21:57;;;;;;;49.20;23.30;;;;;;;11.56;98.96;99846.95;670202;1267;139998;-76
2024/03/22 15:37:01;;;;;;;60.40;27.90;;;;;;;11.74;97.52;99827.50;671716;1272;139544;-76
2024/03/22 15:52:05;;;;;;;83.60;34.20;;;;;;;11.86;96.69;99804.70;668280;1269;138512;-77
2024/03/22 16:07:08;;;;;;;63.90;28.80;;;;;;;11.82;96.01;99790.93;667549;1269;138733;-78
2024/03/22 16:23:25;;;;;;;39.20;20.30;;;;;;;11.49;97.28;99766.38;651497;1296;545030;-77
2024/03/22 16:38:29;;;;;;;37.30;18.40;;;;;;;11.28;98.61;99745.73;663337;1293;138726;-77
2024/03/22 16:53:33;;;;;;;46.30;19.50;;;;;;;11.24;99.44;99748.55;664191;1280;139371;-78
2024/03/22 17:08:36;;;;;;;45.30;21.00;;;;;;;11.36;98.80;99746.11;667706;1280;139249;-80
2024/03/22 17:23:39;;;;;;;43.60;21.00;;;;;;;11.49;97.85;99739.59;668633;1277;139601;-78
2024/03/22 17:38:43;;;;;;;43.60;20.60;;;;;;;11.61;97.03;99728.23;668634;1280;140757;-79
2024/03/22 17:53:46;;;;;;;54.40;24.70;;;;;;;11.68;96.59;99713.54;666939;1278;137815;-79
2024/03/22 18:08:51;;;;;;;45.30;23.60;;;;;;;11.64;97.20;99707.84;666720;1276;140765;-79
2024/03/22 18:23:54;;;;;;;50.50;21.50;;;;;;;11.63;97.83;99698.44;666555;1279;139332;-79
2024/03/22 18:38:57;;;;;;;42.00;19.70;;;;;;;11.66;97.45;99681.48;664343;1278;139637;-79
2024/03/22 18:54:01;;;;;;;40.00;18.80;;;;;;;11.78;96.72;99667.24;669950;1267;138887;-80
2024/03/22 19:09:04;;;;;;;36.30;19.90;;;;;;;11.75;96.73;99649.59;667728;1274;139638;-78
2024/03/22 19:24:07;;;;;;;40.30;20.20;;;;;;;11.75;96.86;99620.79;665491;1273;138912;-78
2024/03/22 19:39:11;;;;;;;44.80;20.90;;;;;;;11.77;96.47;99616.88;666761;1274;140110;-79
2024/03/22 19:54:30;;;;;;;40.70;19.70;;;;;;;11.77;96.85;99610.12;667364;1281;139975;-79
2024/03/22 20:09:33;;;;;;;;;;;;;;;11.69;97.97;99600.60;665810;1273;139112;-78
2024/03/22 20:33:04;;;;;;;38.00;17.80;;;;;;;11.75;99.89;99574.70;652367;1295;545439;-79
2024/03/22 20:48:08;;;;;;;34.10;16.20;;;;;;;11.70;100.00;99568.45;666881;1275;140027;-78
2024/03/22 21:03:15;;;;;;;32.20;15.70;;;;;;;11.63;100.00;99565.50;665754;1276;139508;-79
2024/03/22 21:18:18;;;;;;;32.70;17.30;;;;;;;11.58;100.00;99561.23;669141;1276;139212;-79
2024/03/22 21:33:22;;;;;;;40.50;16.60;;;;;;;11.54;100.00;99545.42;666858;1266;138708;-78
2024/03/22 21:48:25;;;;;;;39.50;18.40;;;;;;;11.43;100.00;99534.75;671948;1265;139627;-79
2024/03/22 22:03:31;;;;;;;36.10;17.50;;;;;;;11.42;100.00;99528.61;668564;1265;138652;-79
2024/03/22 22:18:35;;;;;;;38.50;17.90;;;;;;;11.40;100.00;99518.88;670095;1265;138819;-80
2024/03/22 22:33:39;;;;;;;42.40;19.50;;;;;;;11.42;100.00;99515.94;669311;1265;139907;-80
2024/03/22 22:48:42;;;;;;;45.60;22.00;;;;;;;11.42;100.00;99510.42;668307;1266;139116;-80
2024/03/22 23:03:46;;;;;;;42.70;21.20;;;;;;;11.50;100.00;99500.33;667451;1265;138809;-80
2024/03/22 23:18:49;;;;;;;61.50;28.00;;;;;;;11.52;100.00;99486.41;666397;1279;139617;-80
2024/03/22 23:33:52;;;;;;;68.70;29.10;;;;;;;11.56;100.00;99478.30;668810;1268;139519;-80
2024/03/22 23:48:56;;;;;;;39.30;20.00;;;;;;;11.61;100.00;99463.94;668321;1266;138935;-79
